createdAt,value
2023-03-12T00:04:16.128Z,98945.42
2023-03-12T00:09:18.841Z,98939.52
2023-03-12T00:14:21.548Z,98934.08
2023-03-12T00:19:24.328Z,98924.85
2023-03-12T00:24:27.071Z,98923.88
2023-03-12T00:29:29.790Z,98922.03
2023-03-12T00:34:32.537Z,98911.14
2023-03-12T00:39:35.636Z,98907.95
2023-03-12T00:44:38.689Z,98904.75
2023-03-12T00:49:41.753Z,98902.59
2023-03-12T00:54:44.458Z,98894.61
2023-03-12T00:59:47.342Z,98895.76
2023-03-12T01:04:50.059Z,98892.94
2023-03-12T01:09:52.848Z,98887.56
2023-03-12T01:14:55.656Z,98884.89
2023-03-12T01:19:58.672Z,98880.87
2023-03-12T01:25:01.388Z,98882.83
2023-03-12T01:30:06.023Z,98876.94
2023-03-12T01:35:09.341Z,98881.13
2023-03-12T01:40:20.905Z,98876.91
2023-03-12T01:45:58.079Z,98866.84
2023-03-12T01:51:02.651Z,98862.11
2023-03-12T01:56:08.639Z,98861.48
2023-03-12T02:01:11.463Z,98863.11
2023-03-12T02:06:15.919Z,98862.70
2023-03-12T02:11:18.739Z,98866.91
2023-03-12T02:16:21.554Z,98867.73
2023-03-12T02:21:27.355Z,98867.17
2023-03-12T02:26:31.237Z,98879.89
2023-03-12T02:31:41.089Z,98883.34
2023-03-12T02:36:43.920Z,98893.40
2023-03-12T02:41:53.814Z,98886.77
2023-03-12T02:46:59.295Z,98881.45
2023-03-12T02:52:02.385Z,98877.80
2023-03-12T02:57:05.269Z,98886.73
2023-03-12T03:02:09.729Z,98882.50
2023-03-12T03:07:12.642Z,98881.91
2023-03-12T03:12:15.438Z,98883.70
2023-03-12T03:17:18.398Z,98883.50
2023-03-12T03:22:22.791Z,98895.66
2023-03-12T03:27:25.691Z,98900.61
2023-03-12T03:32:28.753Z,98906.30
2023-03-12T03:37:31.514Z,98914.45
2023-03-12T03:42:34.297Z,98916.00
2023-03-12T03:47:37.128Z,98916.98
2023-03-12T03:52:39.837Z,98919.36
2023-03-12T03:57:42.538Z,98922.12
2023-03-12T04:02:45.491Z,98931.30
2023-03-12T04:07:48.527Z,98933.91
2023-03-12T04:12:52.988Z,98939.96
2023-03-12T04:17:55.887Z,98947.86
2023-03-12T04:22:58.722Z,98954.06
2023-03-12T04:28:02.080Z,98955.74
2023-03-12T04:33:06.096Z,98958.45
2023-03-12T04:38:08.807Z,98966.23
2023-03-12T04:43:11.654Z,98973.70
2023-03-12T04:48:14.492Z,98964.00
2023-03-12T04:53:17.529Z,98975.30
2023-03-12T04:58:20.805Z,98982.27
2023-03-12T05:03:23.517Z,98982.51
2023-03-12T05:08:26.312Z,98985.74
2023-03-12T05:13:29.025Z,98984.36
2023-03-12T05:18:31.718Z,98986.94
2023-03-12T05:23:36.044Z,98996.02
2023-03-12T05:28:38.847Z,99002.52
2023-03-12T05:33:42.004Z,99005.75
2023-03-12T05:38:45.026Z,99010.92
2023-03-12T05:43:48.549Z,99023.04
2023-03-12T05:48:51.599Z,99029.41
2023-03-12T05:53:54.371Z,99036.83
2023-03-12T05:58:57.098Z,99047.96
2023-03-12T06:03:59.937Z,99051.17
2023-03-12T06:09:04.726Z,99056.23
2023-03-12T06:14:07.603Z,99066.64
2023-03-12T06:19:14.139Z,99067.52
2023-03-12T06:24:16.913Z,99073.59
2023-03-12T06:29:19.597Z,99080.20
2023-03-12T06:34:22.360Z,99091.62
2023-03-12T06:39:25.419Z,99102.63
2023-03-12T06:44:28.154Z,99111.79
2023-03-12T06:49:33.381Z,99109.25
2023-03-12T06:54:36.154Z,99120.25
2023-03-12T06:59:38.831Z,99132.32
2023-03-12T07:04:41.541Z,99136.45
2023-03-12T07:09:44.496Z,99151.05
2023-03-12T07:14:47.234Z,99157.89
2023-03-12T07:19:50.110Z,99166.80
2023-03-12T07:24:52.901Z,99171.31
2023-03-12T07:29:55.587Z,99169.57
2023-03-12T07:34:58.397Z,99175.70
2023-03-12T07:40:01.198Z,99180.93
2023-03-12T07:45:04.599Z,99187.46
2023-03-12T07:50:07.882Z,99186.23
2023-03-12T07:55:10.929Z,99194.69
2023-03-12T08:00:15.427Z,99196.02
2023-03-12T08:05:18.877Z,99205.73
2023-03-12T08:10:22.512Z,99208.89
2023-03-12T08:15:25.613Z,99219.63
2023-03-12T08:20:28.702Z,99220.40
2023-03-12T08:25:31.648Z,99225.35
2023-03-12T08:30:34.404Z,99224.45
2023-03-12T08:35:37.550Z,99237.29
2023-03-12T08:40:40.532Z,99250.37
2023-03-12T08:45:43.358Z,99262.27
2023-03-12T08:50:46.036Z,99268.89
2023-03-12T08:55:49.096Z,99261.35
2023-03-12T09:00:52.673Z,99274.18
2023-03-12T09:06:16.803Z,99280.30
2023-03-12T09:11:19.671Z,99279.73
2023-03-12T09:16:22.421Z,99278.09
2023-03-12T09:21:25.267Z,99280.43
2023-03-12T09:26:28.073Z,99287.57
2023-03-12T09:31:30.871Z,99296.65
2023-03-12T09:36:34.349Z,99308.95
2023-03-12T09:41:40.549Z,99314.70
2023-03-12T09:46:51.417Z,99316.79
2023-03-12T09:51:57.124Z,99321.84
2023-03-12T09:57:04.330Z,99330.87
2023-03-12T10:02:30.249Z,99337.51
2023-03-12T10:07:39.834Z,99329.07
2023-03-12T10:12:54.500Z,99326.12
2023-03-12T10:18:10.748Z,99330.87
2023-03-12T10:23:52.027Z,99354.52
2023-03-12T10:29:06.298Z,99397.66
2023-03-12T10:34:19.159Z,99420.45
2023-03-12T10:39:22.460Z,99423.55
2023-03-12T10:44:25.698Z,99430.66
2023-03-12T10:49:32.225Z,99424.63
2023-03-12T10:54:40.891Z,99423.31
2023-03-12T10:59:47.618Z,99424.36
2023-03-12T11:04:52.181Z,99428.64
2023-03-12T11:10:07.241Z,99424.93
2023-03-12T11:15:22.192Z,99427.45
2023-03-12T11:20:28.021Z,99430.31
2023-03-12T11:25:31.912Z,99445.91
2023-03-12T11:30:41.044Z,99455.61
2023-03-12T11:35:52.551Z,99473.42
2023-03-12T11:41:08.659Z,99483.73
2023-03-12T11:46:50.380Z,99486.26
2023-03-12T11:52:12.824Z,99479.00
2023-03-12T11:57:46.286Z,99484.90
2023-03-12T12:03:30.949Z,99487.59
2023-03-12T12:08:55.389Z,99485.94
2023-03-12T12:14:11.986Z,99493.51
2023-03-12T12:19:34.128Z,99493.73
2023-03-12T12:24:51.212Z,99505.91
2023-03-12T12:30:16.247Z,99518.58
2023-03-12T12:35:27.810Z,99515.59
2023-03-12T12:40:45.239Z,99524.95
2023-03-12T12:45:52.581Z,99529.80
2023-03-12T12:50:55.863Z,99532.66
2023-03-12T12:55:58.455Z,99534.10
2023-03-12T13:01:02.637Z,99543.23
2023-03-12T13:06:07.232Z,99543.66
2023-03-12T13:11:19.464Z,99549.10
2023-03-12T13:16:34.244Z,99560.05
2023-03-12T13:21:58.857Z,99567.09
2023-03-12T13:27:19.340Z,99579.64
2023-03-12T13:32:34.599Z,99577.76
2023-03-12T13:37:46.780Z,99584.61
2023-03-12T13:43:05.842Z,99586.51
2023-03-12T13:48:16.407Z,99583.48
2023-03-12T13:53:32.695Z,99583.14
2023-03-12T13:59:09.661Z,99589.11
2023-03-12T14:04:20.756Z,99603.38
2023-03-12T14:09:32.785Z,99611.42
2023-03-12T14:15:05.493Z,99610.48
2023-03-12T14:20:11.335Z,99614.11
2023-03-12T14:25:36.167Z,99610.84
2023-03-12T14:30:49.778Z,99613.96
2023-03-12T14:36:07.829Z,99613.60
2023-03-12T14:41:39.840Z,99617.86
2023-03-12T14:46:49.139Z,99614.45
2023-03-12T14:51:51.938Z,99617.30
2023-03-12T14:56:54.731Z,99624.92
2023-03-12T15:02:02.250Z,99620.85
2023-03-12T15:07:10.746Z,99621.45
2023-03-12T15:12:35.078Z,99627.91
2023-03-12T15:17:38.086Z,99629.03
2023-03-12T15:22:41.564Z,99629.77
2023-03-12T15:27:44.396Z,99634.16
2023-03-12T15:33:22.119Z,99635.73
2023-03-12T15:38:25.636Z,99629.93
2023-03-12T15:43:28.505Z,99631.08
2023-03-12T15:48:35.061Z,99629.09
2023-03-12T15:53:37.825Z,99624.98
2023-03-12T15:58:42.075Z,99632.25
2023-03-12T16:03:46.090Z,99630.71
2023-03-12T16:08:53.109Z,99626.11
2023-03-12T16:14:05.118Z,99628.27
2023-03-12T16:19:20.394Z,99633.81
2023-03-12T16:24:23.443Z,99635.36
2023-03-12T16:29:35.646Z,99643.10
2023-03-12T16:34:38.373Z,99639.96
2023-03-12T16:39:41.245Z,99645.23
2023-03-12T16:44:46.348Z,99651.52
2023-03-12T16:49:49.290Z,99653.30
2023-03-12T16:54:53.023Z,99657.48
2023-03-12T16:59:55.746Z,99661.29
2023-03-12T17:04:58.714Z,99668.34
2023-03-12T17:10:01.495Z,99679.81
2023-03-12T17:15:25.923Z,99685.58
2023-03-12T17:20:34.916Z,99696.27
2023-03-12T17:25:40.761Z,99699.26
2023-03-12T17:30:44.287Z,99703.11
2023-03-12T17:35:58.866Z,99690.02
2023-03-12T17:41:02.173Z,99681.92
2023-03-12T17:46:08.802Z,99685.68
2023-03-12T17:51:11.739Z,99685.17
2023-03-12T17:56:17.991Z,99681.91
2023-03-12T18:01:21.080Z,99688.95
2023-03-12T18:06:25.082Z,99690.52
2023-03-12T18:11:28.097Z,99694.19
2023-03-12T18:16:30.909Z,99705.63
2023-03-12T18:21:33.742Z,99704.02
2023-03-12T18:26:36.499Z,99718.86
2023-03-12T18:31:39.288Z,99720.24
2023-03-12T18:36:42.184Z,99716.80
2023-03-12T18:41:44.995Z,99722.42
2023-03-12T18:46:49.045Z,99725.62
2023-03-12T18:51:55.962Z,99722.45
2023-03-12T18:56:58.749Z,99723.58
2023-03-12T19:02:01.554Z,99732.08
2023-03-12T19:07:05.173Z,99739.20
2023-03-12T19:12:07.979Z,99735.36
2023-03-12T19:17:10.673Z,99742.12
2023-03-12T19:22:13.472Z,99748.58
2023-03-12T19:27:16.200Z,99754.54
2023-03-12T19:32:18.933Z,99755.11
2023-03-12T19:37:22.570Z,99758.98
2023-03-12T19:42:25.423Z,99741.95
2023-03-12T19:47:33.126Z,99746.27
2023-03-12T19:52:35.838Z,99751.09
2023-03-12T19:57:39.057Z,99750.07
2023-03-12T20:02:42.200Z,99741.65
2023-03-12T20:07:44.987Z,99736.15
2023-03-12T20:12:47.706Z,99725.85
2023-03-12T20:17:50.467Z,99718.81
2023-03-12T20:22:53.213Z,99722.42
2023-03-12T20:27:57.424Z,99717.77
2023-03-12T20:33:00.843Z,99716.23
2023-03-12T20:38:05.045Z,99717.13
2023-03-12T20:43:07.742Z,99719.10
2023-03-12T20:48:10.925Z,99728.62
2023-03-12T20:53:13.762Z,99728.47
2023-03-12T20:58:17.141Z,99731.23
2023-03-12T21:03:20.560Z,99736.50
2023-03-12T21:08:24.037Z,99731.13
2023-03-12T21:13:26.853Z,99724.19
2023-03-12T21:18:29.587Z,99713.00
2023-03-12T21:23:33.405Z,99704.63
2023-03-12T21:28:36.516Z,99699.03
2023-03-12T21:33:39.287Z,99694.09
2023-03-12T21:38:43.087Z,99690.35
2023-03-12T21:43:47.248Z,99687.77
2023-03-12T21:48:50.324Z,99680.20
2023-03-12T21:53:57.680Z,99666.10
2023-03-12T21:59:00.553Z,99659.40
2023-03-12T22:04:05.579Z,99651.84
2023-03-12T22:09:08.829Z,99637.78
2023-03-12T22:14:11.525Z,99636.03
2023-03-12T22:19:14.642Z,99639.45
2023-03-12T22:24:17.392Z,99637.94
2023-03-12T22:29:20.184Z,99638.67
2023-03-12T22:34:22.930Z,99636.67
2023-03-12T22:39:25.665Z,99633.78
2023-03-12T22:44:28.364Z,99635.15
2023-03-12T22:49:31.063Z,99637.52
2023-03-12T22:54:33.871Z,99639.36
2023-03-12T22:59:38.264Z,99625.44
2023-03-12T23:04:41.069Z,99621.98
2023-03-12T23:09:44.988Z,99626.08
2023-03-12T23:14:47.803Z,99628.48
2023-03-12T23:19:50.517Z,99617.88
2023-03-12T23:24:53.327Z,99618.92
2023-03-12T23:29:56.068Z,99612.77
2023-03-12T23:34:58.803Z,99618.09
2023-03-12T23:40:01.755Z,99606.08
2023-03-12T23:45:05.086Z,99615.16
2023-03-12T23:50:08.392Z,99613.77
2023-03-12T23:55:11.090Z,99612.08
